createdAt,value
2018-12-20T00:00:18.485Z,0.00
2018-12-20T00:01:18.460Z,0.00
2018-12-20T00:02:18.474Z,0.00
2018-12-20T00:03:18.564Z,0.00
2018-12-20T00:04:18.491Z,0.00
2018-12-20T00:05:18.456Z,0.00
2018-12-20T00:06:18.472Z,0.00
2018-12-20T00:07:18.473Z,0.00
2018-12-20T00:08:18.489Z,0.00
2018-12-20T00:09:18.471Z,0.00
2018-12-20T00:10:18.393Z,0.00
2018-12-20T00:11:18.499Z,0.00
2018-12-20T00:12:18.381Z,0.00
2018-12-20T00:13:18.464Z,0.00
2018-12-20T00:14:18.389Z,0.00
2018-12-20T00:15:18.356Z,0.00
2018-12-20T00:16:18.477Z,0.00
2018-12-20T00:17:18.388Z,0.00
2018-12-20T00:18:18.457Z,0.00
2018-12-20T00:19:18.286Z,0.00
2018-12-20T00:20:18.377Z,0.00
2018-12-20T00:21:18.266Z,0.00
2018-12-20T00:22:18.348Z,0.00
2018-12-20T00:23:18.301Z,0.00
2018-12-20T00:24:18.299Z,0.00
2018-12-20T00:25:18.240Z,0.00
2018-12-20T00:26:18.244Z,0.00
2018-12-20T00:27:18.204Z,0.00
2018-12-20T00:28:18.334Z,0.00
2018-12-20T00:29:18.235Z,0.00
2018-12-20T00:30:18.231Z,0.00
2018-12-20T00:31:18.231Z,0.00
2018-12-20T00:32:18.225Z,0.00
2018-12-20T00:33:18.183Z,0.00
2018-12-20T00:34:18.114Z,0.00
2018-12-20T00:35:18.164Z,0.00
2018-12-20T00:36:18.300Z,0.00
2018-12-20T00:37:18.697Z,0.00
2018-12-20T00:38:18.094Z,0.00
2018-12-20T00:39:18.075Z,0.00
2018-12-20T00:40:18.074Z,0.00
2018-12-20T00:41:18.040Z,0.00
2018-12-20T00:42:18.297Z,0.00
2018-12-20T00:43:18.053Z,0.00
2018-12-20T00:44:18.047Z,0.00
2018-12-20T00:45:18.035Z,0.00
2018-12-20T00:46:18.125Z,0.00
2018-12-20T00:47:18.051Z,0.00
2018-12-20T00:48:18.154Z,0.00
2018-12-20T00:49:18.098Z,0.00
2018-12-20T00:50:18.117Z,0.00
2018-12-20T00:51:17.944Z,0.00
2018-12-20T00:52:17.990Z,0.00
2018-12-20T00:53:17.930Z,0.00
2018-12-20T00:54:17.927Z,0.00
2018-12-20T00:55:17.951Z,0.00
2018-12-20T00:56:17.889Z,0.00
2018-12-20T00:57:17.999Z,0.00
2018-12-20T00:58:17.874Z,0.00
2018-12-20T00:59:17.932Z,0.00
2018-12-20T01:00:17.860Z,0.00
2018-12-20T01:01:17.838Z,0.00
2018-12-20T01:02:18.025Z,0.00
2018-12-20T01:03:17.872Z,0.00
2018-12-20T01:04:17.801Z,0.00
2018-12-20T01:05:17.789Z,0.00
2018-12-20T01:06:17.795Z,0.00
2018-12-20T01:07:17.935Z,0.00
2018-12-20T01:08:17.762Z,0.00
2018-12-20T01:09:18.033Z,0.00
2018-12-20T01:10:17.810Z,0.00
2018-12-20T01:11:17.734Z,0.00
2018-12-20T01:12:17.876Z,0.00
2018-12-20T01:13:17.717Z,0.00
2018-12-20T01:14:17.726Z,0.00
2018-12-20T01:15:17.714Z,0.00
2018-12-20T01:16:17.676Z,0.00
2018-12-20T01:17:18.530Z,0.00
2018-12-20T01:18:17.782Z,0.00
2018-12-20T01:19:17.639Z,0.00
2018-12-20T01:20:17.650Z,0.00
2018-12-20T01:21:17.858Z,0.00
2018-12-20T01:22:17.703Z,0.00
2018-12-20T01:23:17.805Z,0.00
2018-12-20T01:24:17.600Z,0.00
2018-12-20T01:25:17.584Z,0.00
2018-12-20T01:26:17.564Z,0.00
2018-12-20T01:27:17.637Z,0.00
2018-12-20T01:28:17.566Z,0.00
2018-12-20T01:29:17.712Z,0.00
2018-12-20T01:30:17.528Z,0.00
2018-12-20T01:31:17.516Z,0.00
2018-12-20T01:32:17.544Z,0.00
2018-12-20T01:33:17.540Z,0.00
2018-12-20T01:34:17.543Z,0.00
2018-12-20T01:35:17.542Z,0.00
2018-12-20T01:36:17.456Z,0.00
2018-12-20T01:37:17.441Z,0.00
2018-12-20T01:38:17.502Z,0.00
2018-12-20T01:39:17.487Z,0.00
2018-12-20T01:40:17.411Z,0.00
2018-12-20T01:41:17.666Z,0.00
2018-12-20T01:42:17.446Z,0.00
2018-12-20T01:43:17.385Z,0.00
2018-12-20T01:44:17.587Z,0.00
2018-12-20T01:45:17.374Z,0.00
2018-12-20T01:46:17.500Z,0.00
2018-12-20T01:47:17.340Z,0.00
2018-12-20T01:48:17.517Z,0.00
2018-12-20T01:49:17.376Z,0.00
2018-12-20T01:50:17.335Z,0.00
2018-12-20T01:51:17.297Z,0.00
2018-12-20T01:52:17.319Z,0.00
2018-12-20T01:53:17.439Z,0.00
2018-12-20T01:54:17.338Z,0.00
2018-12-20T01:55:17.470Z,0.00
2018-12-20T01:56:17.307Z,0.00
2018-12-20T01:57:17.227Z,0.00
2018-12-20T01:58:17.259Z,0.00
2018-12-20T01:59:17.388Z,0.00
2018-12-20T02:00:17.347Z,0.00
2018-12-20T02:01:17.217Z,0.00
2018-12-20T02:02:17.507Z,0.00
2018-12-20T02:03:17.324Z,0.00
2018-12-20T02:04:17.148Z,0.00
2018-12-20T02:05:17.154Z,0.00
2018-12-20T02:06:17.378Z,0.00
2018-12-20T02:07:17.123Z,0.00
2018-12-20T02:08:17.199Z,0.00
2018-12-20T02:09:17.117Z,0.00
2018-12-20T02:10:17.087Z,0.00
2018-12-20T02:11:17.271Z,0.00
2018-12-20T02:12:17.221Z,0.00
2018-12-20T02:13:17.266Z,0.00
2018-12-20T02:14:17.123Z,0.00
2018-12-20T02:15:17.122Z,0.00
2018-12-20T02:16:17.180Z,0.00
2018-12-20T02:17:17.015Z,0.00
2018-12-20T02:18:17.017Z,0.00
2018-12-20T02:19:17.025Z,0.00
2018-12-20T02:20:17.026Z,0.00
2018-12-20T02:21:17.019Z,0.00
2018-12-20T02:22:16.991Z,0.00
2018-12-20T02:23:16.953Z,0.00
2018-12-20T02:24:17.123Z,0.00
2018-12-20T02:25:17.189Z,0.00
2018-12-20T02:26:17.003Z,0.00
2018-12-20T02:27:17.185Z,0.00
2018-12-20T02:28:16.912Z,0.00
2018-12-20T02:29:17.008Z,0.00
2018-12-20T02:30:17.001Z,0.00
2018-12-20T02:31:16.910Z,0.00
2018-12-20T02:32:16.856Z,0.00
2018-12-20T02:33:16.994Z,0.00
2018-12-20T02:34:16.879Z,0.00
2018-12-20T02:35:17.099Z,0.00
2018-12-20T02:36:16.812Z,0.00
2018-12-20T02:37:16.822Z,0.00
2018-12-20T02:38:17.054Z,0.00
2018-12-20T02:39:16.822Z,0.00
2018-12-20T02:40:16.978Z,0.00
2018-12-20T02:41:17.067Z,0.00
2018-12-20T02:42:16.784Z,0.00
2018-12-20T02:43:16.835Z,0.00
2018-12-20T02:44:16.733Z,0.00
2018-12-20T02:45:16.745Z,0.00
2018-12-20T02:46:16.852Z,0.00
2018-12-20T02:47:16.769Z,0.00
2018-12-20T02:48:16.986Z,0.00
2018-12-20T02:49:16.732Z,0.00
2018-12-20T02:50:16.732Z,0.00
2018-12-20T02:51:16.787Z,0.00
2018-12-20T02:52:16.693Z,0.00
2018-12-20T02:53:16.804Z,0.00
2018-12-20T02:54:16.678Z,0.00
2018-12-20T02:55:16.919Z,0.00
2018-12-20T02:56:16.676Z,0.00
2018-12-20T02:57:16.624Z,0.00
2018-12-20T02:58:16.697Z,0.00
2018-12-20T02:59:16.569Z,0.00
2018-12-20T03:00:16.763Z,0.00
2018-12-20T03:01:16.606Z,0.00
2018-12-20T03:02:16.540Z,0.00
2018-12-20T03:03:16.578Z,0.00
2018-12-20T03:04:16.569Z,0.00
2018-12-20T03:05:16.765Z,0.00
2018-12-20T03:06:16.618Z,0.00
2018-12-20T03:07:16.625Z,0.00
2018-12-20T03:08:16.526Z,0.00
2018-12-20T03:09:16.554Z,0.00
2018-12-20T03:10:16.693Z,0.00
2018-12-20T03:11:16.576Z,0.00
2018-12-20T03:12:16.526Z,0.00
2018-12-20T03:13:16.593Z,0.00
2018-12-20T03:14:16.512Z,0.00
2018-12-20T03:15:20.155Z,0.00
2018-12-20T03:16:16.551Z,0.00
2018-12-20T03:17:16.458Z,0.00
2018-12-20T03:18:16.359Z,0.00
2018-12-20T03:19:16.623Z,0.00
2018-12-20T03:20:16.406Z,0.00
2018-12-20T03:21:16.392Z,0.00
2018-12-20T03:22:16.326Z,0.00
2018-12-20T03:23:16.366Z,0.00
2018-12-20T03:24:16.596Z,0.00
2018-12-20T03:25:16.323Z,0.00
2018-12-20T03:26:16.475Z,0.00
2018-12-20T03:27:16.305Z,0.00
2018-12-20T03:28:16.434Z,0.00
2018-12-20T03:29:16.529Z,0.00
2018-12-20T03:30:16.529Z,0.00
2018-12-20T03:31:16.444Z,0.00
2018-12-20T03:32:16.216Z,0.00
2018-12-20T03:33:16.781Z,0.00
2018-12-20T03:34:16.295Z,0.00
2018-12-20T03:35:16.210Z,0.00
2018-12-20T03:36:16.180Z,0.00
2018-12-20T03:37:16.449Z,0.00
2018-12-20T03:38:16.351Z,0.00
2018-12-20T03:39:16.203Z,0.00
2018-12-20T03:40:16.281Z,0.00
2018-12-20T03:41:16.119Z,0.00
2018-12-20T03:42:16.146Z,0.00
2018-12-20T03:43:16.146Z,0.00
2018-12-20T03:44:16.151Z,0.00
2018-12-20T03:45:16.154Z,0.00
2018-12-20T03:46:16.068Z,0.00
2018-12-20T03:47:16.069Z,0.00
2018-12-20T03:48:16.083Z,0.00
2018-12-20T03:49:16.211Z,0.00
2018-12-20T03:50:16.025Z,0.00
2018-12-20T03:51:16.043Z,0.00
2018-12-20T03:52:16.140Z,0.00
2018-12-20T03:53:16.119Z,0.00
2018-12-20T03:54:16.027Z,0.00
2018-12-20T03:55:16.581Z,0.00
2018-12-20T03:56:16.085Z,0.00
2018-12-20T03:57:27.336Z,0.00
2018-12-20T03:58:16.936Z,0.00
2018-12-20T03:59:15.970Z,0.00
2018-12-20T04:00:16.042Z,0.00
2018-12-20T04:01:16.166Z,0.00
2018-12-20T04:02:16.022Z,0.00
2018-12-20T04:03:15.909Z,0.00
2018-12-20T04:04:16.042Z,0.00
2018-12-20T04:05:15.961Z,0.00
2018-12-20T04:06:15.926Z,0.00
2018-12-20T04:07:15.888Z,0.00
2018-12-20T04:08:16.049Z,0.00
2018-12-20T04:09:16.031Z,0.00
2018-12-20T04:10:15.961Z,0.00
2018-12-20T04:11:15.837Z,0.00
2018-12-20T04:12:15.842Z,0.00
2018-12-20T04:13:15.820Z,0.00
2018-12-20T04:14:15.851Z,0.00
2018-12-20T04:15:16.032Z,0.00
2018-12-20T04:16:16.025Z,0.00
2018-12-20T04:17:15.975Z,0.00
2018-12-20T04:18:15.758Z,0.00
2018-12-20T04:19:15.777Z,0.00
2018-12-20T04:20:15.841Z,0.00
2018-12-20T04:21:15.900Z,0.00
2018-12-20T04:22:15.985Z,0.00
2018-12-20T04:23:15.704Z,0.00
2018-12-20T04:24:16.049Z,0.00
2018-12-20T04:25:15.895Z,0.00
2018-12-20T04:26:15.678Z,0.00
2018-12-20T04:27:15.649Z,0.00
2018-12-20T04:28:15.848Z,0.00
2018-12-20T04:29:15.674Z,0.00
2018-12-20T04:30:15.691Z,0.00
2018-12-20T04:31:15.701Z,0.00
2018-12-20T04:32:15.640Z,0.00
2018-12-20T04:33:15.832Z,0.00
2018-12-20T04:34:15.653Z,0.00
2018-12-20T04:35:15.559Z,0.00
2018-12-20T04:36:15.717Z,0.00
2018-12-20T04:37:15.647Z,0.00
2018-12-20T04:38:15.685Z,0.00
2018-12-20T04:39:15.588Z,0.00
2018-12-20T04:40:15.661Z,0.00
2018-12-20T04:41:15.600Z,0.00
2018-12-20T04:42:15.565Z,0.00
2018-12-20T04:43:15.709Z,0.00
2018-12-20T04:44:15.622Z,0.00
2018-12-20T04:45:15.498Z,0.00
2018-12-20T04:46:15.444Z,0.00
2018-12-20T04:47:15.631Z,0.00
2018-12-20T04:48:15.525Z,0.00
2018-12-20T04:49:15.473Z,0.00
2018-12-20T04:50:15.535Z,0.00
2018-12-20T04:51:15.624Z,0.00
2018-12-20T04:52:15.510Z,0.00
2018-12-20T04:53:15.445Z,0.00
2018-12-20T04:54:15.411Z,0.00
2018-12-20T04:55:15.359Z,0.00
2018-12-20T04:56:15.481Z,0.00
2018-12-20T04:57:15.328Z,0.00
2018-12-20T04:58:15.441Z,0.00
2018-12-20T04:59:15.694Z,0.00
2018-12-20T05:00:15.425Z,0.00
2018-12-20T05:01:15.508Z,0.00
2018-12-20T05:02:15.343Z,0.00
2018-12-20T05:03:15.279Z,0.00
2018-12-20T05:04:15.317Z,0.00
2018-12-20T05:05:15.475Z,0.00
2018-12-20T05:06:15.227Z,0.00
2018-12-20T05:07:15.346Z,0.00
2018-12-20T05:08:15.262Z,0.00
2018-12-20T05:09:15.440Z,0.00
2018-12-20T05:10:15.316Z,0.00
2018-12-20T05:11:15.179Z,0.00
2018-12-20T05:12:15.346Z,0.00
2018-12-20T05:13:15.181Z,0.00
2018-12-20T05:14:15.262Z,0.00
2018-12-20T05:15:15.138Z,0.00
2018-12-20T05:16:15.183Z,0.00
2018-12-20T05:17:15.139Z,0.00
2018-12-20T05:18:15.125Z,0.00
2018-12-20T05:19:15.496Z,0.00
2018-12-20T05:20:15.528Z,0.00
2018-12-20T05:21:15.424Z,0.00
2018-12-20T05:22:15.136Z,0.00
2018-12-20T05:23:15.051Z,0.00
2018-12-20T05:24:15.108Z,0.00
2018-12-20T05:25:15.109Z,0.00
2018-12-20T05:26:15.050Z,0.00
2018-12-20T05:27:15.246Z,0.00
2018-12-20T05:28:15.041Z,0.00
2018-12-20T05:29:14.998Z,0.00
2018-12-20T05:30:15.257Z,0.00
2018-12-20T05:31:14.969Z,0.00
2018-12-20T05:32:15.130Z,0.00
2018-12-20T05:33:15.029Z,0.00
2018-12-20T05:34:14.938Z,0.00
2018-12-20T05:35:14.982Z,0.00
2018-12-20T05:36:14.930Z,0.00
2018-12-20T05:37:15.207Z,0.00
2018-12-20T05:38:15.153Z,0.00
2018-12-20T05:39:15.074Z,0.00
2018-12-20T05:40:15.212Z,0.00
2018-12-20T05:41:15.062Z,0.00
2018-12-20T05:42:14.910Z,0.00
2018-12-20T05:43:14.931Z,0.00
2018-12-20T05:44:15.046Z,0.00
2018-12-20T05:45:14.916Z,0.00
2018-12-20T05:46:14.916Z,0.00
2018-12-20T05:47:14.839Z,0.00
2018-12-20T05:48:15.111Z,0.00
2018-12-20T05:49:14.962Z,0.00
2018-12-20T05:50:14.761Z,0.00
2018-12-20T05:51:14.754Z,0.00
2018-12-20T05:52:14.771Z,0.00
2018-12-20T05:53:14.932Z,0.00
2018-12-20T05:54:14.911Z,0.00
2018-12-20T05:55:14.724Z,0.00
2018-12-20T05:56:14.849Z,0.00
2018-12-20T05:57:14.695Z,0.00
2018-12-20T05:58:14.748Z,0.00
2018-12-20T05:59:14.994Z,0.00
2018-12-20T06:00:14.658Z,0.00
2018-12-20T06:01:14.705Z,0.00
2018-12-20T06:02:14.643Z,0.00
2018-12-20T06:03:14.789Z,0.00
2018-12-20T06:04:14.637Z,0.00
2018-12-20T06:05:14.860Z,0.00
2018-12-20T06:06:14.649Z,0.00
2018-12-20T06:07:15.005Z,0.00
2018-12-20T06:08:14.597Z,0.00
2018-12-20T06:09:14.803Z,0.00
2018-12-20T06:10:14.641Z,0.00
2018-12-20T06:11:14.576Z,0.00
2018-12-20T06:12:14.769Z,0.00
2018-12-20T06:13:14.573Z,0.00
2018-12-20T06:14:14.528Z,0.00
2018-12-20T06:15:14.514Z,0.00
2018-12-20T06:16:14.771Z,0.00
2018-12-20T06:17:14.560Z,0.00
2018-12-20T06:18:14.472Z,0.00
2018-12-20T06:19:14.467Z,0.00
2018-12-20T06:20:14.596Z,0.00
2018-12-20T06:21:14.478Z,0.00
2018-12-20T06:22:14.693Z,0.00
2018-12-20T06:23:14.438Z,0.00
2018-12-20T06:24:14.403Z,0.00
2018-12-20T06:25:14.406Z,0.00
2018-12-20T06:26:14.423Z,4.00
2018-12-20T06:27:14.452Z,4.00
2018-12-20T06:28:14.364Z,0.00
2018-12-20T06:29:14.372Z,4.00
2018-12-20T06:30:14.348Z,4.00
2018-12-20T06:31:14.349Z,8.00
2018-12-20T06:32:14.414Z,8.00
2018-12-20T06:33:14.318Z,8.00
2018-12-20T06:34:14.309Z,8.00
2018-12-20T06:35:14.293Z,12.00
2018-12-20T06:36:14.332Z,16.00
2018-12-20T06:37:14.332Z,16.00
2018-12-20T06:38:14.256Z,20.00
2018-12-20T06:39:14.337Z,28.00
2018-12-20T06:40:16.326Z,28.00
2018-12-20T06:41:14.233Z,36.00
2018-12-20T06:42:14.318Z,44.00
2018-12-20T06:43:14.206Z,48.00
2018-12-20T06:44:14.217Z,56.00
2018-12-20T06:45:14.183Z,68.00
2018-12-20T06:46:21.114Z,76.00
2018-12-20T06:47:15.175Z,88.00
2018-12-20T06:48:14.197Z,100.00
2018-12-20T06:49:14.898Z,116.00
2018-12-20T06:50:14.127Z,140.00
2018-12-20T06:51:14.202Z,164.00
2018-12-20T06:52:14.112Z,188.00
2018-12-20T06:53:14.214Z,216.00
2018-12-20T06:54:14.128Z,240.00
2018-12-20T06:55:14.089Z,268.00
2018-12-20T06:56:14.130Z,296.00
2018-12-20T06:57:14.100Z,324.00
2018-12-20T06:58:14.075Z,360.00
2018-12-20T06:59:14.032Z,392.00
2018-12-20T07:00:14.029Z,424.00
2018-12-20T07:01:14.091Z,464.00
2018-12-20T07:02:14.008Z,500.00
2018-12-20T07:03:13.997Z,540.00
2018-12-20T07:04:14.005Z,580.00
2018-12-20T07:05:13.974Z,620.00
2018-12-20T07:06:14.026Z,668.00
2018-12-20T07:07:13.986Z,728.00
2018-12-20T07:08:13.977Z,792.00
2018-12-20T07:09:13.995Z,860.00
2018-12-20T07:10:13.934Z,932.00
2018-12-20T07:11:13.950Z,1016.00
2018-12-20T07:12:13.907Z,1116.00
2018-12-20T07:13:13.899Z,1240.00
2018-12-20T07:14:13.926Z,1352.00
2018-12-20T07:15:13.878Z,1448.00
2018-12-20T07:16:13.873Z,1544.00
2018-12-20T07:17:13.879Z,1636.00
2018-12-20T07:18:13.838Z,1748.00
2018-12-20T07:19:13.875Z,1880.00
2018-12-20T07:20:13.838Z,2052.00
2018-12-20T07:21:13.804Z,2268.00
2018-12-20T07:22:13.793Z,2496.00
2018-12-20T07:23:13.846Z,2712.00
2018-12-20T07:24:13.830Z,2872.00
2018-12-20T07:25:13.786Z,2992.00
2018-12-20T07:26:13.752Z,3060.00
2018-12-20T07:27:13.746Z,3088.00
2018-12-20T07:28:13.783Z,3112.00
2018-12-20T07:29:13.776Z,3120.00
2018-12-20T07:30:13.715Z,3104.00
2018-12-20T07:31:13.735Z,3080.00
2018-12-20T07:32:13.788Z,3056.00
2018-12-20T07:33:13.677Z,3036.00
2018-12-20T07:34:13.668Z,3008.00
2018-12-20T07:35:13.667Z,2988.00
2018-12-20T07:36:13.681Z,2948.00
2018-12-20T07:37:13.709Z,2904.00
2018-12-20T07:38:13.625Z,2892.00
2018-12-20T07:39:13.661Z,2888.00
2018-12-20T07:40:13.618Z,2852.00
2018-12-20T07:41:13.660Z,2800.00
2018-12-20T07:42:14.002Z,2736.00
2018-12-20T07:43:13.574Z,2680.00
2018-12-20T07:44:13.565Z,2660.00
2018-12-20T07:45:13.576Z,2648.00
2018-12-20T07:46:13.541Z,2584.00
2018-12-20T07:47:13.613Z,2520.00
2018-12-20T07:48:13.524Z,2508.00
2018-12-20T07:49:13.546Z,2512.00
2018-12-20T07:50:13.515Z,2548.00
2018-12-20T07:51:13.589Z,2600.00
2018-12-20T07:52:14.596Z,2648.00
2018-12-20T07:53:13.531Z,2676.00
2018-12-20T07:54:13.493Z,2700.00
2018-12-20T07:55:13.452Z,2756.00
2018-12-20T07:56:13.506Z,2796.00
2018-12-20T07:57:26.840Z,2824.00
2018-12-20T07:58:14.431Z,2844.00
2018-12-20T07:59:13.452Z,2860.00
2018-12-20T08:00:13.425Z,2868.00
2018-12-20T08:01:13.446Z,2876.00
2018-12-20T08:02:13.383Z,2892.00
2018-12-20T08:03:13.384Z,2904.00
2018-12-20T08:04:13.384Z,2916.00
2018-12-20T08:05:13.473Z,2932.00
2018-12-20T08:06:13.360Z,2948.00
2018-12-20T08:07:13.352Z,2968.00
2018-12-20T08:08:13.315Z,2988.00
2018-12-20T08:09:13.305Z,3012.00
2018-12-20T08:10:14.819Z,3032.00
2018-12-20T08:11:13.337Z,3056.00
2018-12-20T08:12:13.287Z,3080.00
2018-12-20T08:13:13.292Z,3104.00
2018-12-20T08:14:13.261Z,3128.00
2018-12-20T08:15:13.301Z,3148.00
2018-12-20T08:16:13.281Z,3176.00
2018-12-20T08:17:13.271Z,3196.00
2018-12-20T08:18:13.252Z,3220.00
2018-12-20T08:19:13.234Z,3240.00
2018-12-20T08:20:13.200Z,3264.00
2018-12-20T08:21:13.217Z,3288.00
2018-12-20T08:22:13.274Z,3308.00
2018-12-20T08:23:13.217Z,3328.00
2018-12-20T08:24:13.195Z,3348.00
2018-12-20T08:25:13.180Z,3368.00
2018-12-20T08:26:13.132Z,3388.00
2018-12-20T08:27:13.194Z,3408.00
2018-12-20T08:28:13.448Z,3424.00
2018-12-20T08:29:13.133Z,3444.00
2018-12-20T08:30:13.099Z,3464.00
2018-12-20T08:31:13.090Z,3484.00
2018-12-20T08:32:13.085Z,3504.00
2018-12-20T08:33:13.126Z,3524.00
2018-12-20T08:34:13.096Z,3544.00
2018-12-20T08:35:13.038Z,3564.00
2018-12-20T08:36:13.076Z,3584.00
2018-12-20T08:37:13.027Z,3600.00
2018-12-20T08:38:13.075Z,3620.00
2018-12-20T08:39:13.012Z,3636.00
2018-12-20T08:40:13.020Z,3652.00
2018-12-20T08:41:12.993Z,3672.00
2018-12-20T08:42:12.984Z,3692.00
2018-12-20T08:43:13.007Z,3704.00
2018-12-20T08:44:12.955Z,3728.00
2018-12-20T08:45:12.929Z,3736.00
2018-12-20T08:46:12.934Z,3756.00
2018-12-20T08:47:12.969Z,3772.00
2018-12-20T08:48:12.963Z,3788.00
2018-12-20T08:49:13.014Z,3804.00
2018-12-20T08:50:12.945Z,3820.00
2018-12-20T08:51:12.884Z,3836.00
2018-12-20T08:52:12.866Z,3848.00
2018-12-20T08:53:13.935Z,3864.00
2018-12-20T08:54:12.844Z,3880.00
2018-12-20T08:55:12.855Z,3892.00
2018-12-20T08:56:12.903Z,3904.00
2018-12-20T08:57:12.823Z,3920.00
2018-12-20T08:58:12.836Z,3936.00
2018-12-20T08:59:13.120Z,3948.00
2018-12-20T09:00:12.795Z,3964.00
2018-12-20T09:01:13.401Z,3976.00
2018-12-20T09:02:12.794Z,3988.00
2018-12-20T09:03:12.778Z,4008.00
2018-12-20T09:04:12.813Z,4016.00
2018-12-20T09:05:12.725Z,4028.00
2018-12-20T09:06:12.735Z,4044.00
2018-12-20T09:07:12.734Z,4056.00
2018-12-20T09:08:12.702Z,4076.00
2018-12-20T09:09:12.740Z,4088.00
2018-12-20T09:10:12.678Z,4100.00
2018-12-20T09:11:12.662Z,4116.00
2018-12-20T09:12:12.673Z,4128.00
2018-12-20T09:13:12.690Z,4140.00
2018-12-20T09:14:12.689Z,4156.00
2018-12-20T09:15:12.619Z,4168.00
2018-12-20T09:16:12.638Z,4180.00
2018-12-20T09:17:12.686Z,4196.00
2018-12-20T09:18:12.629Z,4208.00
2018-12-20T09:19:12.575Z,4220.00
2018-12-20T09:20:12.630Z,4232.00
2018-12-20T09:21:12.576Z,4248.00
2018-12-20T09:22:12.610Z,4264.00
2018-12-20T09:23:12.572Z,4276.00
2018-12-20T09:24:12.586Z,4288.00
2018-12-20T09:25:12.520Z,4300.00
2018-12-20T09:26:12.522Z,4312.00
2018-12-20T09:27:12.589Z,4324.00
2018-12-20T09:28:12.480Z,4340.00
2018-12-20T09:29:12.472Z,4352.00
2018-12-20T09:30:12.495Z,4368.00
2018-12-20T09:31:12.459Z,4380.00
2018-12-20T09:32:12.491Z,4392.00
2018-12-20T09:33:12.444Z,4408.00
2018-12-20T09:34:12.438Z,4424.00
2018-12-20T09:35:12.499Z,4436.00
2018-12-20T09:36:12.472Z,4452.00
2018-12-20T09:37:12.585Z,4472.00
2018-12-20T09:38:12.392Z,4496.00
2018-12-20T09:39:12.427Z,4516.00
2018-12-20T09:40:12.388Z,4540.00
2018-12-20T09:41:12.359Z,4564.00
2018-12-20T09:42:12.347Z,4604.00
2018-12-20T09:43:12.384Z,4924.00
2018-12-20T09:44:12.577Z,11312.00
2018-12-20T09:45:12.363Z,23552.00
2018-12-20T09:46:12.309Z,36736.00
2018-12-20T09:47:12.328Z,48128.00
2018-12-20T09:48:12.281Z,51264.00
2018-12-20T09:49:12.366Z,49024.00
2018-12-20T09:50:12.289Z,47008.00
2018-12-20T09:51:12.803Z,44704.00
2018-12-20T09:52:12.242Z,45344.00
2018-12-20T09:53:12.284Z,40640.00
2018-12-20T09:54:12.235Z,39648.00
2018-12-20T09:55:12.418Z,39744.00
2018-12-20T09:56:12.215Z,40000.00
2018-12-20T09:57:12.179Z,45088.00
2018-12-20T09:58:12.187Z,51648.00
2018-12-20T09:59:12.257Z,55456.00
2018-12-20T10:00:12.175Z,54752.00
2018-12-20T10:01:12.177Z,54336.00
2018-12-20T10:02:12.159Z,56480.00
2018-12-20T10:03:12.179Z,59040.00
2018-12-20T10:04:12.195Z,63104.00
2018-12-20T10:05:12.172Z,64160.00
2018-12-20T10:06:12.117Z,62784.00
2018-12-20T10:07:12.090Z,62080.00
2018-12-20T10:08:12.300Z,62176.00
2018-12-20T10:09:12.193Z,61632.00
2018-12-20T10:10:12.060Z,60064.00
2018-12-20T10:11:12.817Z,59040.00
2018-12-20T10:12:12.534Z,58496.00
2018-12-20T10:13:12.030Z,57696.00
2018-12-20T10:14:12.051Z,58560.00
2018-12-20T10:15:12.030Z,60672.00
2018-12-20T10:16:12.025Z,60672.00
2018-12-20T10:17:19.694Z,60384.00
2018-12-20T10:18:12.972Z,61312.00
2018-12-20T10:19:12.030Z,61856.00
2018-12-20T10:20:11.929Z,62208.00
2018-12-20T10:21:11.953Z,60512.00
2018-12-20T10:22:11.936Z,59104.00
2018-12-20T10:23:12.935Z,57696.00
2018-12-20T10:24:11.959Z,58304.00
2018-12-20T10:25:11.931Z,58528.00
2018-12-20T10:26:11.876Z,58336.00
2018-12-20T10:27:11.859Z,55616.00
2018-12-20T10:28:11.857Z,54304.00
2018-12-20T10:29:11.957Z,40160.00
2018-12-20T10:30:12.369Z,11044.00
2018-12-20T10:31:11.837Z,47328.00
2018-12-20T10:32:11.803Z,56800.00
2018-12-20T10:33:11.805Z,56064.00
2018-12-20T10:34:11.884Z,50240.00
2018-12-20T10:35:11.869Z,49120.00
2018-12-20T10:36:11.769Z,68352.00
2018-12-20T10:37:11.791Z,69760.00
2018-12-20T10:38:11.774Z,42784.00
2018-12-20T10:39:11.734Z,41600.00
2018-12-20T10:40:11.774Z,27200.00
2018-12-20T10:41:11.751Z,48160.00
2018-12-20T10:42:11.727Z,61504.00
2018-12-20T10:43:12.287Z,68096.00
2018-12-20T10:44:11.735Z,67808.00
2018-12-20T10:45:11.678Z,79392.00
2018-12-20T10:46:11.666Z,77504.00
2018-12-20T10:47:11.677Z,70912.00
2018-12-20T10:48:11.627Z,72064.00
2018-12-20T10:49:11.680Z,70624.00
2018-12-20T10:50:11.633Z,69952.00
2018-12-20T10:51:11.695Z,69920.00
2018-12-20T10:52:11.604Z,72064.00
2018-12-20T10:53:11.588Z,72672.00
2018-12-20T10:54:11.588Z,73536.00
2018-12-20T10:55:11.627Z,71296.00
2018-12-20T10:56:11.576Z,72416.00
2018-12-20T10:57:11.572Z,72832.00
2018-12-20T10:58:11.561Z,70688.00
2018-12-20T10:59:11.514Z,69056.00
2018-12-20T11:00:11.563Z,66784.00
2018-12-20T11:01:11.510Z,66720.00
2018-12-20T11:02:11.505Z,69728.00
2018-12-20T11:03:11.568Z,71616.00
2018-12-20T11:04:11.469Z,64864.00
2018-12-20T11:05:11.511Z,57760.00
2018-12-20T11:06:11.450Z,45952.00
2018-12-20T11:07:11.449Z,36256.00
2018-12-20T11:08:11.425Z,30944.00
2018-12-20T11:09:11.465Z,29920.00
2018-12-20T11:10:11.479Z,29312.00
2018-12-20T11:11:11.884Z,29536.00
2018-12-20T11:12:11.393Z,28832.00
2018-12-20T11:13:11.385Z,28672.00
2018-12-20T11:14:11.366Z,30176.00
2018-12-20T11:15:11.435Z,31328.00
2018-12-20T11:16:14.590Z,67040.00
2018-12-20T11:17:11.348Z,99168.00
2018-12-20T11:18:11.355Z,108864.00
2018-12-20T11:19:11.290Z,61024.00
2018-12-20T11:20:11.306Z,58528.00
2018-12-20T11:21:11.341Z,57728.00
2018-12-20T11:22:11.274Z,59584.00
2018-12-20T11:23:11.271Z,62560.00
2018-12-20T11:24:11.328Z,63968.00
2018-12-20T11:25:11.251Z,62208.00
2018-12-20T11:26:11.294Z,60224.00
2018-12-20T11:27:11.241Z,59456.00
2018-12-20T11:28:11.235Z,58880.00
2018-12-20T11:29:11.210Z,54880.00
2018-12-20T11:30:11.226Z,50464.00
2018-12-20T11:31:11.240Z,53152.00
2018-12-20T11:32:11.186Z,58752.00
2018-12-20T11:33:11.180Z,59648.00
2018-12-20T11:34:11.185Z,56032.00
2018-12-20T11:35:11.159Z,53760.00
2018-12-20T11:36:11.197Z,55456.00
2018-12-20T11:37:11.138Z,59456.00
2018-12-20T11:38:11.102Z,63392.00
2018-12-20T11:39:11.250Z,64160.00
2018-12-20T11:40:11.150Z,59840.00
2018-12-20T11:41:11.166Z,51936.00
2018-12-20T11:42:11.080Z,50080.00
2018-12-20T11:43:11.071Z,54080.00
2018-12-20T11:44:11.057Z,53120.00
2018-12-20T11:45:11.039Z,48384.00
2018-12-20T11:46:12.117Z,52128.00
2018-12-20T11:47:11.011Z,58944.00
2018-12-20T11:48:11.003Z,63200.00
2018-12-20T11:49:11.054Z,62432.00
2018-12-20T11:50:11.035Z,59840.00
2018-12-20T11:51:10.956Z,56192.00
2018-12-20T11:52:10.995Z,56416.00
2018-12-20T11:53:10.961Z,59872.00
2018-12-20T11:54:10.933Z,63040.00
2018-12-20T11:55:11.142Z,62112.00
2018-12-20T11:56:10.947Z,61248.00
2018-12-20T11:57:10.963Z,63424.00
2018-12-20T11:58:10.873Z,66688.00
2018-12-20T11:59:10.916Z,65600.00
2018-12-20T12:00:10.861Z,60320.00
2018-12-20T12:01:10.898Z,52640.00
2018-12-20T12:02:10.859Z,51040.00
2018-12-20T12:03:10.830Z,56800.00
2018-12-20T12:04:10.862Z,62720.00
2018-12-20T12:05:10.804Z,60256.00
2018-12-20T12:06:10.792Z,53696.00
2018-12-20T12:07:10.849Z,50112.00
2018-12-20T12:08:10.772Z,45472.00
2018-12-20T12:09:10.839Z,39584.00
2018-12-20T12:10:10.766Z,38944.00
2018-12-20T12:11:10.792Z,43008.00
2018-12-20T12:12:10.764Z,44960.00
2018-12-20T12:13:10.731Z,44544.00
2018-12-20T12:14:10.791Z,46272.00
2018-12-20T12:15:10.701Z,47776.00
2018-12-20T12:16:10.699Z,47104.00
2018-12-20T12:17:10.733Z,45056.00
2018-12-20T12:18:10.682Z,43744.00
2018-12-20T12:19:10.723Z,43040.00
2018-12-20T12:20:10.814Z,42208.00
2018-12-20T12:21:10.644Z,41472.00
2018-12-20T12:22:10.677Z,38688.00
2018-12-20T12:23:10.636Z,35392.00
2018-12-20T12:24:10.677Z,35136.00
2018-12-20T12:25:10.655Z,39616.00
2018-12-20T12:26:10.603Z,44000.00
2018-12-20T12:27:10.575Z,46752.00
2018-12-20T12:28:10.622Z,47552.00
2018-12-20T12:29:10.604Z,47744.00
2018-12-20T12:30:10.629Z,49856.00
2018-12-20T12:31:10.543Z,50848.00
2018-12-20T12:32:10.520Z,49440.00
2018-12-20T12:33:10.641Z,46912.00
2018-12-20T12:34:10.514Z,43456.00
2018-12-20T12:35:10.546Z,41280.00
2018-12-20T12:36:10.477Z,43136.00
2018-12-20T12:37:10.635Z,45184.00